Time;durP1;ratioP1;P1;durP2;ratioP2;P2;SDS_P1;SDS_P2;PMS_P1;PMS_P2;Temp;Humidity;BMP_temperature;BMP_pressure;BME280_temperature;BME280_humidity;BME280_pressure;Samples;Min_cycle;Max_cycle;Signal;HPM_P1;HPM_P2
2021/06/21 00:02:34;;;;;;;;;;;;;;;;;;;;;
2021/06/21 00:06:05;;;;;;;;;;;;;;;;;;;;;
2021/06/21 00:15:18;;;;;;;20.20;10.77;;;24.30;97.30;;;;;;4862569;29;20778;-92
2021/06/21 00:18:50;;;;;;;14.03;9.70;;;24.30;97.30;;;;;;4872026;29;20455;-91
2021/06/21 00:28:25;;;;;;;16.13;9.23;;;24.40;97.30;;;;;;4825473;29;20404;-92
2021/06/21 00:30:53;;;;;;;15.33;10.30;;;24.40;97.30;;;;;;4810124;29;20439;-93
2021/06/21 00:33:19;;;;;;;25.33;10.20;;;24.20;97.30;;;;;;4857505;29;20484;-92
2021/06/21 00:35:44;;;;;;;11.93;6.83;;;23.80;97.30;;;;;;4904046;29;20466;-91
2021/06/21 00:38:10;;;;;;;11.03;5.93;;;23.60;97.30;;;;;;4903896;29;20188;-93
2021/06/21 00:40:38;;;;;;;21.40;3.77;;;23.40;97.30;;;;;;4904684;29;20192;-92
2021/06/21 00:43:04;;;;;;;13.57;3.40;;;22.90;97.30;;;;;;4905507;29;20502;-92
2021/06/21 00:45:29;;;;;;;8.93;3.80;;;22.10;97.30;;;;;;4904204;29;20778;-90
2021/06/21 00:47:55;;;;;;;8.17;3.07;;;21.50;97.30;;;;;;4904035;29;20424;-90
2021/06/21 00:50:23;;;;;;;9.87;2.93;;;21.10;97.30;;;;;;4920283;29;20268;-90
2021/06/21 00:52:53;;;;;;;10.87;3.07;;;20.80;97.30;;;;;;4926758;23;20242;-88
2021/06/21 00:55:19;;;;;;;15.80;3.63;;;20.60;97.30;;;;;;4922577;29;20507;-87
2021/06/21 00:57:44;;;;;;;7.60;2.40;;;20.40;97.30;;;;;;4940100;29;20496;-87
2021/06/21 01:00:13;;;;;;;7.37;2.70;;;20.20;97.30;;;;;;4922594;29;20219;-87
2021/06/21 01:02:39;;;;;;;9.37;3.43;;;20.10;97.30;;;;;;4922552;29;20299;-87
2021/06/21 01:05:07;;;;;;;9.90;2.90;;;20.10;97.30;;;;;;4922634;29;20452;-88
2021/06/21 01:07:33;;;;;;;6.20;2.53;;;20.10;97.30;;;;;;4923064;29;20812;-88
2021/06/21 01:09:58;;;;;;;7.37;3.33;;;20.00;97.30;;;;;;4922860;29;20420;-87
2021/06/21 01:12:51;;;;;;;16.03;2.90;;;20.00;97.30;;;;;;4921779;29;20211;-87
2021/06/21 01:15:30;;;;;;;10.63;3.17;;;19.90;97.30;;;;;;4922479;29;20243;-87
2021/06/21 01:18:02;;;;;;;7.87;3.60;;;20.00;97.30;;;;;;4922565;29;20415;-88
2021/06/21 01:20:57;;;;;;;10.33;3.73;;;20.10;97.30;;;;;;4922618;29;20860;-87
2021/06/21 01:23:41;;;;;;;8.50;3.10;;;20.20;97.30;;;;;;4922828;29;20507;-87
2021/06/21 01:26:13;;;;;;;5.97;3.57;;;20.40;97.30;;;;;;4921784;29;20479;-87
2021/06/21 01:29:17;;;;;;;8.47;3.60;;;20.50;97.30;;;;;;4921296;29;20411;-87
2021/06/21 01:32:14;;;;;;;6.47;3.10;;;20.60;97.30;;;;;;4920678;29;20427;-87
2021/06/21 01:34:55;;;;;;;7.37;3.37;;;20.70;97.30;;;;;;4904161;29;20435;-87
2021/06/21 01:37:23;;;;;;;6.73;3.63;;;20.80;97.30;;;;;;4920151;29;20408;-87
2021/06/21 01:39:52;;;;;;;5.77;2.87;;;20.90;97.30;;;;;;4920257;29;20514;-87
2021/06/21 01:42:21;;;;;;;10.70;3.40;;;20.90;97.30;;;;;;4936862;29;20458;-87
2021/06/21 01:44:57;;;;;;;8.03;3.33;;;20.90;97.30;;;;;;4920308;29;20455;-87
2021/06/21 01:47:23;;;;;;;8.13;3.30;;;20.90;97.30;;;;;;4920022;29;20449;-87
2021/06/21 01:49:50;;;;;;;8.50;3.10;;;21.00;97.30;;;;;;4919955;29;20423;-87
2021/06/21 01:52:18;;;;;;;8.47;3.60;;;21.00;97.30;;;;;;4919471;29;20518;-87
2021/06/21 01:54:54;;;;;;;7.27;3.33;;;21.00;97.30;;;;;;4919871;29;20438;-87
2021/06/21 01:57:27;;;;;;;7.67;3.30;;;21.00;97.30;;;;;;4919603;29;20430;-88
2021/06/21 01:59:54;;;;;;;5.60;3.17;;;20.90;97.30;;;;;;4919760;29;20463;-87
2021/06/21 02:02:22;;;;;;;6.60;3.77;;;20.90;97.30;;;;;;4919546;29;20450;-87
2021/06/21 02:04:51;;;;;;;4.50;3.30;;;20.90;97.30;;;;;;4919685;29;20557;-87
2021/06/21 02:07:17;;;;;;;6.93;3.40;;;20.90;97.30;;;;;;4919554;29;20447;-87
2021/06/21 02:09:46;;;;;;;10.47;3.57;;;21.00;97.30;;;;;;4919642;29;20456;-87
2021/06/21 02:12:20;;;;;;;6.63;3.50;;;20.90;97.30;;;;;;4919764;29;20487;-87
2021/06/21 02:14:51;;;;;;;8.83;3.73;;;21.00;97.30;;;;;;4919601;29;20965;-87
2021/06/21 02:17:21;;;;;;;8.43;3.90;;;21.00;97.30;;;;;;4919421;29;20416;-87
2021/06/21 02:19:51;;;;;;;8.63;3.53;;;21.00;97.30;;;;;;4919524;29;21000;-88
2021/06/21 02:22:21;;;;;;;6.37;3.27;;;20.90;97.30;;;;;;4919553;29;21041;-88
2021/06/21 02:24:46;;;;;;;12.03;3.90;;;20.90;97.30;;;;;;4937210;29;20458;-87
2021/06/21 02:27:12;;;;;;;7.77;3.60;;;20.80;97.30;;;;;;4920000;29;20423;-87
2021/06/21 02:29:38;;;;;;;9.07;4.00;;;20.70;97.30;;;;;;4920092;29;20439;-87
2021/06/21 02:32:05;;;;;;;8.17;3.60;;;20.60;97.30;;;;;;4919925;29;20208;-87
2021/06/21 02:34:31;;;;;;;5.77;3.70;;;20.60;97.30;;;;;;4919782;29;20514;-87
2021/06/21 02:36:57;;;;;;;6.83;3.63;;;20.60;97.30;;;;;;4936666;29;20502;-88
2021/06/21 02:39:22;;;;;;;8.63;3.63;;;20.60;97.30;;;;;;4936636;29;20479;-87
2021/06/21 02:41:48;;;;;;;6.93;3.47;;;20.60;97.30;;;;;;4919863;29;20176;-87
2021/06/21 02:44:13;;;;;;;7.47;4.57;;;20.70;97.30;;;;;;4919736;29;20274;-87
2021/06/21 02:46:39;;;;;;;6.00;3.20;;;20.70;97.30;;;;;;4919638;29;20191;-86
2021/06/21 02:49:04;;;;;;;8.93;3.23;;;20.80;97.30;;;;;;4919728;29;20186;-87
2021/06/21 02:51:38;;;;;;;7.47;3.63;;;20.80;97.30;;;;;;4919276;29;20180;-88
2021/06/21 02:54:09;;;;;;;7.40;3.87;;;20.80;97.30;;;;;;4919704;29;20323;-88
2021/06/21 02:57:03;;;;;;;5.77;3.43;;;20.80;97.30;;;;;;4936763;29;20483;-88
2021/06/21 02:59:36;;;;;;;7.23;3.43;;;20.80;97.30;;;;;;4919497;29;20507;-88
2021/06/21 03:02:02;;;;;;;8.10;3.30;;;20.90;97.30;;;;;;4919729;29;20863;-88
2021/06/21 03:04:29;;;;;;;10.60;3.07;;;20.90;97.30;;;;;;4920184;29;20428;-89
2021/06/21 03:06:57;;;;;;;6.13;3.33;;;20.90;97.30;;;;;;4920362;29;20415;-88
2021/06/21 03:09:24;;;;;;;6.30;2.93;;;20.90;97.30;;;;;;4920255;29;20424;-88
2021/06/21 03:11:52;;;;;;;7.47;3.50;;;21.00;97.30;;;;;;4920414;29;21022;-88
2021/06/21 03:14:22;;;;;;;7.30;3.80;;;20.90;97.30;;;;;;4937562;29;20423;-88
2021/06/21 03:16:50;;;;;;;7.73;3.40;;;20.80;97.30;;;;;;4920521;29;20752;-88
2021/06/21 03:19:16;;;;;;;5.40;3.40;;;20.80;97.30;;;;;;4920394;29;20459;-88
2021/06/21 03:21:44;;;;;;;6.70;4.37;;;20.80;97.30;;;;;;4920177;29;20490;-88
2021/06/21 03:24:14;;;;;;;9.50;3.73;;;20.70;97.30;;;;;;4920389;29;20179;-88
2021/06/21 03:26:41;;;;;;;10.00;3.50;;;20.70;97.30;;;;;;4919884;29;21126;-88
2021/06/21 03:29:14;;;;;;;6.10;3.40;;;20.80;97.30;;;;;;4920117;29;20423;-87
2021/06/21 03:31:43;;;;;;;14.57;4.77;;;20.80;97.30;;;;;;4920214;29;20423;-88
2021/06/21 03:34:08;;;;;;;11.67;4.23;;;20.90;97.30;;;;;;4919080;29;20428;-86
2021/06/21 03:36:34;;;;;;;7.83;3.93;;;21.00;97.30;;;;;;4919010;29;20526;-87
2021/06/21 03:38:59;;;;;;;10.27;4.07;;;21.10;97.30;;;;;;4935865;29;20709;-88
2021/06/21 03:41:25;;;;;;;11.47;4.70;;;21.00;97.30;;;;;;4936308;29;20180;-88
2021/06/21 03:43:51;;;;;;;9.77;4.10;;;20.90;97.30;;;;;;4919035;29;20204;-88
2021/06/21 03:46:16;;;;;;;14.50;4.70;;;20.80;97.30;;;;;;4918624;29;20184;-88
2021/06/21 03:48:42;;;;;;;12.27;4.27;;;20.70;97.30;;;;;;4918975;29;20184;-87
2021/06/21 03:51:07;;;;;;;7.67;4.00;;;20.70;97.30;;;;;;4918622;29;20188;-87
2021/06/21 03:53:33;;;;;;;7.20;4.00;;;20.70;97.30;;;;;;4917559;29;20228;-88
2021/06/21 03:55:58;;;;;;;11.47;4.83;;;20.70;97.30;;;;;;4917660;29;20250;-87
2021/06/21 03:58:24;;;;;;;10.00;4.13;;;20.70;97.30;;;;;;4917622;29;20198;-87
2021/06/21 04:00:50;;;;;;;7.67;4.40;;;20.60;97.30;;;;;;4917721;29;20279;-88
2021/06/21 04:03:15;;;;;;;10.93;4.03;;;20.60;97.30;;;;;;4934672;29;20199;-88
2021/06/21 04:05:41;;;;;;;9.27;4.00;;;20.60;97.30;;;;;;4918216;29;20258;-88
2021/06/21 04:08:10;;;;;;;6.40;3.87;;;20.70;97.30;;;;;;4917953;29;20643;-88
2021/06/21 04:10:37;;;;;;;8.83;4.57;;;20.70;97.30;;;;;;4918042;29;20497;-88
2021/06/21 04:13:03;;;;;;;8.30;4.00;;;20.70;97.30;;;;;;4934890;29;20431;-88
2021/06/21 04:15:30;;;;;;;11.30;4.50;;;20.60;97.30;;;;;;4918005;29;20987;-88
2021/06/21 04:17:57;;;;;;;8.00;4.13;;;20.50;97.30;;;;;;4918010;29;20415;-87
2021/06/21 04:20:23;;;;;;;8.33;4.27;;;20.50;97.30;;;;;;4918304;29;20461;-88
2021/06/21 04:22:48;;;;;;;9.40;4.13;;;20.50;97.30;;;;;;4918597;29;20431;-88
2021/06/21 04:25:16;;;;;;;14.57;3.93;;;20.50;97.30;;;;;;4918734;29;21186;-87
2021/06/21 04:27:42;;;;;;;8.53;4.20;;;20.50;97.30;;;;;;4918482;29;20673;-88
2021/06/21 04:30:10;;;;;;;10.60;4.43;;;20.50;97.30;;;;;;4918901;29;20931;-88
2021/06/21 04:32:35;;;;;;;9.80;4.63;;;20.40;97.30;;;;;;4918369;29;20943;-88
2021/06/21 04:35:01;;;;;;;8.67;4.07;;;20.40;97.30;;;;;;4918368;29;20434;-88
2021/06/21 04:37:26;;;;;;;10.73;4.70;;;20.40;97.30;;;;;;4918531;29;20203;-88
2021/06/21 04:39:52;;;;;;;7.30;4.83;;;20.40;97.30;;;;;;4918645;29;20574;-88
2021/06/21 04:42:17;;;;;;;11.33;4.37;;;20.40;97.30;;;;;;4918558;29;20196;-88
2021/06/21 04:44:44;;;;;;;6.63;4.60;;;20.40;97.30;;;;;;4919042;29;20187;-87
2021/06/21 04:47:10;;;;;;;14.00;5.03;;;20.30;97.30;;;;;;4920919;29;20176;-88
2021/06/21 04:49:36;;;;;;;10.60;4.50;;;20.30;97.30;;;;;;4922378;29;20515;-88
2021/06/21 04:52:03;;;;;;;8.33;4.23;;;20.40;97.30;;;;;;4922443;29;20215;-88
2021/06/21 04:54:29;;;;;;;11.90;5.07;;;20.40;97.30;;;;;;4923154;29;20959;-89
2021/06/21 04:56:55;;;;;;;15.30;4.73;;;20.40;97.30;;;;;;4922902;29;20447;-87
2021/06/21 04:59:20;;;;;;;11.03;4.43;;;20.40;97.30;;;;;;4922706;29;20786;-87
2021/06/21 05:01:46;;;;;;;8.17;3.80;;;20.30;97.30;;;;;;4921292;29;20187;-88
2021/06/21 05:04:11;;;;;;;8.33;4.07;;;20.30;97.30;;;;;;4922903;29;20279;-87
2021/06/21 05:06:38;;;;;;;6.40;3.97;;;20.30;97.30;;;;;;4939645;29;20180;-87
2021/06/21 05:09:05;;;;;;;4.93;3.40;;;20.30;97.30;;;;;;4922311;29;20278;-87
2021/06/21 05:11:32;;;;;;;5.27;3.40;;;20.20;97.30;;;;;;4922560;29;20420;-88
2021/06/21 05:13:58;;;;;;;4.77;3.80;;;20.20;97.30;;;;;;4922786;29;20588;-88
2021/06/21 05:16:23;;;;;;;10.00;3.93;;;20.10;97.30;;;;;;4921369;29;20473;-88
2021/06/21 05:18:49;;;;;;;8.70;4.27;;;20.20;97.30;;;;;;4920974;29;20258;-87
2021/06/21 05:21:14;;;;;;;9.97;4.17;;;20.20;97.30;;;;;;4920217;29;20224;-87
2021/06/21 05:23:40;;;;;;;10.83;4.83;;;20.30;97.30;;;;;;4920216;29;20200;-87
2021/06/21 05:26:06;;;;;;;6.00;4.40;;;20.30;97.30;;;;;;4920475;29;20240;-88
2021/06/21 05:28:31;;;;;;;9.87;4.47;;;20.30;97.30;;;;;;4937134;29;20190;-88
2021/06/21 05:30:57;;;;;;;10.13;4.53;;;20.40;97.30;;;;;;4920316;29;20443;-88
2021/06/21 05:33:22;;;;;;;7.13;4.33;;;20.40;97.30;;;;;;4920439;29;20675;-88
2021/06/21 05:35:48;;;;;;;8.60;4.60;;;20.50;97.30;;;;;;4920295;29;20554;-88
2021/06/21 05:38:16;;;;;;;9.10;4.40;;;20.40;97.30;;;;;;4920246;29;20183;-89
2021/06/21 05:40:42;;;;;;;9.87;4.23;;;20.40;97.30;;;;;;4920308;29;20179;-88
2021/06/21 05:43:07;;;;;;;12.57;3.27;;;20.60;97.30;;;;;;4920284;29;20436;-87
2021/06/21 05:45:33;;;;;;;7.27;3.60;;;20.50;97.30;;;;;;4937200;29;20229;-88
2021/06/21 05:47:59;;;;;;;7.20;3.63;;;20.60;97.30;;;;;;4937310;29;20547;-87
2021/06/21 05:50:24;;;;;;;6.80;3.50;;;20.60;97.30;;;;;;4921006;29;20180;-88
2021/06/21 05:52:51;;;;;;;8.30;3.90;;;20.60;97.30;;;;;;4920585;29;20235;-88
2021/06/21 05:55:20;;;;;;;6.37;3.30;;;20.60;97.30;;;;;;4920919;29;20247;-88
2021/06/21 05:57:46;;;;;;;8.40;2.90;;;20.50;97.30;;;;;;4937533;29;20436;-89
2021/06/21 06:00:13;;;;;;;6.40;3.50;;;20.50;97.30;;;;;;4937964;29;20460;-88
2021/06/21 06:02:39;;;;;;;6.97;3.50;;;20.50;97.30;;;;;;4920541;29;20550;-88
2021/06/21 06:05:05;;;;;;;10.23;3.30;;;20.60;97.30;;;;;;4920733;29;20938;-88
2021/06/21 06:07:32;;;;;;;5.37;2.97;;;20.60;97.30;;;;;;4937760;29;20172;-89
2021/06/21 06:09:58;;;;;;;8.73;3.20;;;20.60;97.30;;;;;;4920858;29;20474;-89
2021/06/21 06:12:24;;;;;;;6.07;2.63;;;20.70;97.30;;;;;;4920412;29;20448;-89
2021/06/21 06:14:50;;;;;;;7.03;3.07;;;20.80;97.30;;;;;;4921135;29;20677;-89
2021/06/21 06:17:16;;;;;;;7.87;3.17;;;20.80;97.30;;;;;;4921453;29;20456;-89
2021/06/21 06:19:42;;;;;;;5.53;2.83;;;20.80;97.30;;;;;;4938643;29;20457;-89
2021/06/21 06:22:08;;;;;;;10.40;3.43;;;20.80;97.30;;;;;;4921468;29;20450;-90
2021/06/21 06:24:37;;;;;;;6.63;2.80;;;20.90;97.30;;;;;;4921697;29;20187;-89
2021/06/21 06:27:03;;;;;;;7.70;3.37;;;21.00;97.30;;;;;;4921693;29;20490;-89
2021/06/21 06:29:30;;;;;;;3.80;2.57;;;21.00;97.30;;;;;;4921747;29;20427;-89
2021/06/21 06:31:56;;;;;;;5.77;2.87;;;21.00;97.30;;;;;;4921228;29;20444;-89
2021/06/21 06:34:23;;;;;;;10.50;3.67;;;21.10;97.30;;;;;;4921531;29;20523;-89
2021/06/21 06:36:49;;;;;;;11.37;3.40;;;21.10;97.30;;;;;;4921038;29;20511;-89
2021/06/21 06:39:14;;;;;;;7.87;3.63;;;21.20;97.30;;;;;;4920176;29;20883;-89
2021/06/21 06:41:40;;;;;;;7.30;3.63;;;21.30;97.30;;;;;;4919769;29;20439;-89
2021/06/21 06:44:06;;;;;;;6.97;3.27;;;21.30;97.30;;;;;;4919309;29;20187;-89
2021/06/21 06:46:32;;;;;;;7.83;3.50;;;21.40;97.30;;;;;;4919135;29;20266;-89
2021/06/21 06:48:59;;;;;;;8.53;3.13;;;21.50;97.30;;;;;;4919207;29;20430;-90
2021/06/21 06:51:27;;;;;;;10.40;3.70;;;21.40;97.30;;;;;;4919000;29;20985;-89
2021/06/21 06:54:02;;;;;;;10.23;3.30;;;21.40;97.30;;;;;;4919605;29;20477;-89
2021/06/21 06:59:13;;;;;;;7.63;3.23;;;21.50;97.30;;;;;;4931893;29;20482;-89
2021/06/21 07:01:38;;;;;;;7.33;3.33;;;21.60;97.30;;;;;;4915685;29;20428;-89
2021/06/21 07:04:04;;;;;;;5.40;3.43;;;21.60;97.30;;;;;;4915660;29;20180;-89
2021/06/21 07:06:29;;;;;;;7.87;3.30;;;21.70;97.30;;;;;;4916230;29;20200;-89
2021/06/21 07:08:55;;;;;;;6.90;3.20;;;21.80;97.30;;;;;;4915828;29;20226;-90
2021/06/21 07:11:20;;;;;;;13.00;4.47;;;21.90;97.30;;;;;;4916327;29;20180;-90
2021/06/21 07:13:46;;;;;;;4.57;3.40;;;22.00;97.30;;;;;;4917769;29;20369;-90
2021/06/21 07:16:12;;;;;;;10.93;3.00;;;22.00;97.30;;;;;;4916852;29;20270;-90
2021/06/21 07:18:37;;;;;;;8.80;3.93;;;22.00;97.30;;;;;;4917901;29;20690;-89
2021/06/21 07:21:04;;;;;;;11.70;3.33;;;22.00;97.30;;;;;;4917805;29;20659;-89
2021/06/21 07:23:29;;;;;;;7.40;3.70;;;22.00;97.30;;;;;;4917593;29;20279;-88
2021/06/21 07:25:57;;;;;;;10.70;3.50;;;22.00;97.30;;;;;;4917817;29;20923;-89
2021/06/21 07:28:23;;;;;;;9.30;4.10;;;22.10;97.30;;;;;;4917957;29;20204;-88
2021/06/21 07:30:48;;;;;;;13.10;3.83;;;22.20;97.30;;;;;;4918351;29;20416;-88
2021/06/21 07:33:14;;;;;;;11.60;4.30;;;22.20;97.30;;;;;;4936315;29;20176;-88
2021/06/21 07:35:40;;;;;;;11.17;3.60;;;22.30;97.30;;;;;;4919898;29;20187;-90
2021/06/21 07:38:10;;;;;;;7.20;3.33;;;22.40;97.30;;;;;;4920290;29;20803;-90
2021/06/21 07:40:37;;;;;;;14.03;3.37;;;22.50;97.30;;;;;;4937539;29;20502;-90
2021/06/21 07:43:03;;;;;;;10.27;3.87;;;22.50;97.30;;;;;;4920535;29;20432;-89
2021/06/21 07:45:29;;;;;;;13.73;4.57;;;22.50;97.30;;;;;;4920064;29;20424;-89
2021/06/21 07:47:58;;;;;;;15.53;4.03;;;22.60;97.30;;;;;;4919670;29;20440;-89
2021/06/21 07:50:24;;;;;;;9.40;3.67;;;22.70;97.30;;;;;;4920393;29;20188;-88
2021/06/21 07:52:49;;;;;;;7.97;3.60;;;22.90;97.30;;;;;;4920462;29;20879;-88
2021/06/21 07:55:15;;;;;;;11.30;4.30;;;23.00;97.30;;;;;;4920349;29;20484;-89
2021/06/21 07:57:40;;;;;;;11.97;3.50;;;23.20;97.30;;;;;;4919733;29;20232;-89
2021/06/21 08:00:07;;;;;;;12.17;3.80;;;23.30;97.30;;;;;;4919493;29;20230;-88
2021/06/21 08:02:32;;;;;;;10.03;3.90;;;23.50;97.30;;;;;;4919066;29;20298;-89
2021/06/21 08:04:58;;;;;;;7.50;3.67;;;23.60;97.30;;;;;;4919029;29;21104;-89
2021/06/21 08:07:24;;;;;;;12.90;4.17;;;23.70;97.30;;;;;;4918170;29;20191;-89
2021/06/21 08:09:50;;;;;;;12.23;4.27;;;23.80;97.30;;;;;;4918139;29;20703;-88
2021/06/21 08:12:15;;;;;;;5.93;3.37;;;23.80;97.30;;;;;;4917824;29;20420;-89
2021/06/21 08:14:41;;;;;;;9.07;3.70;;;23.70;97.30;;;;;;4917971;29;20180;-88
2021/06/21 08:17:08;;;;;;;14.10;4.07;;;23.70;97.30;;;;;;4917809;29;20250;-88
2021/06/21 08:19:33;;;;;;;18.00;5.30;;;23.70;97.30;;;;;;4917986;29;20267;-90
2021/06/21 08:21:59;;;;;;;10.47;4.37;;;23.70;97.30;;;;;;4921825;29;20507;-90
2021/06/21 08:24:24;;;;;;;19.60;4.13;;;23.80;97.30;;;;;;4922338;29;20179;-89
2021/06/21 08:26:50;;;;;;;8.60;3.30;;;23.90;97.30;;;;;;4922901;29;20247;-90
2021/06/21 08:29:16;;;;;;;10.63;3.90;;;24.00;97.30;;;;;;4942263;29;20647;-90
2021/06/21 08:31:42;;;;;;;9.13;3.60;;;24.10;97.30;;;;;;4937970;29;20454;-90
2021/06/21 08:34:07;;;;;;;11.43;4.40;;;24.10;97.30;;;;;;4921700;29;20235;-90
2021/06/21 08:36:33;;;;;;;14.43;4.40;;;24.20;97.30;;;;;;4921638;29;20203;-90
2021/06/21 08:38:58;;;;;;;11.27;4.20;;;24.30;97.30;;;;;;4922353;29;20651;-91
2021/06/21 08:41:24;;;;;;;11.33;4.07;;;24.40;97.30;;;;;;4922064;29;20176;-90
2021/06/21 08:43:49;;;;;;;13.47;4.10;;;24.50;97.30;;;;;;4921992;29;20549;-88
2021/06/21 08:46:17;;;;;;;11.23;4.57;;;24.60;97.30;;;;;;4922232;29;20195;-90
2021/06/21 08:48:44;;;;;;;11.33;3.80;;;24.60;97.30;;;;;;4938959;29;20584;-90
2021/06/21 08:51:12;;;;;;;8.50;3.53;;;24.50;97.30;;;;;;4922118;29;20420;-90
2021/06/21 08:53:37;;;;;;;8.27;3.50;;;24.60;97.30;;;;;;4922183;29;20431;-90
2021/06/21 08:56:03;;;;;;;8.67;4.10;;;24.60;97.30;;;;;;4921467;29;20432;-90
2021/06/21 08:58:28;;;;;;;12.30;4.33;;;24.70;97.30;;;;;;4921962;29;20267;-90
2021/06/21 09:00:54;;;;;;;11.23;4.37;;;24.80;97.30;;;;;;4921620;29;20271;-88
2021/06/21 09:03:20;;;;;;;17.33;4.70;;;24.80;97.30;;;;;;4921509;29;20172;-91
2021/06/21 09:05:46;;;;;;;6.90;4.13;;;24.90;97.30;;;;;;4921443;29;20639;-91
2021/06/21 09:08:11;;;;;;;10.30;3.80;;;24.90;97.30;;;;;;4922037;29;20435;-90
2021/06/21 09:10:39;;;;;;;9.63;3.40;;;25.00;97.30;;;;;;4922482;29;20691;-90
2021/06/21 09:13:16;;;;;;;10.90;4.07;;;25.00;97.30;;;;;;4922423;29;20738;-90
2021/06/21 09:15:44;;;;;;;17.87;4.70;;;25.10;97.30;;;;;;4907449;29;20513;-91
2021/06/21 09:18:28;;;;;;;11.43;4.20;;;25.20;97.30;;;;;;4922866;29;20440;-91
2021/06/21 09:21:18;;;;;;;9.33;4.10;;;25.40;97.30;;;;;;4922862;29;20452;-91
2021/06/21 09:23:43;;;;;;;9.03;3.53;;;25.50;97.30;;;;;;4939342;29;20418;-90
2021/06/21 09:26:16;;;;;;;7.40;3.40;;;25.60;95.80;;;;;;4922790;29;20499;-91
2021/06/21 09:28:41;;;;;;;12.83;4.17;;;25.60;96.60;;;;;;4922493;29;20246;-90
2021/06/21 09:31:07;;;;;;;12.70;3.70;;;25.70;97.20;;;;;;4922623;29;20425;-90
2021/06/21 09:33:32;;;;;;;13.20;4.00;;;25.80;94.50;;;;;;4921681;29;20200;-90
2021/06/21 09:35:58;;;;;;;16.40;3.00;;;25.80;94.20;;;;;;4922576;29;20187;-91
2021/06/21 09:38:26;;;;;;;7.90;3.37;;;25.90;94.00;;;;;;4922602;29;20183;-91
2021/06/21 09:40:54;;;;;;;12.17;3.80;;;26.00;91.10;;;;;;4922601;29;20255;-90
2021/06/21 09:43:28;;;;;;;16.43;4.00;;;26.00;91.70;;;;;;4922924;29;20424;-92
2021/06/21 09:46:09;;;;;;;9.57;3.40;;;26.10;90.90;;;;;;4922464;29;20502;-91
2021/06/21 09:48:46;;;;;;;9.07;3.80;;;26.20;92.30;;;;;;4921579;29;20419;-91
2021/06/21 09:51:33;;;;;;;11.27;3.80;;;26.20;93.60;;;;;;4921531;29;20536;-90
2021/06/21 09:54:10;;;;;;;9.87;3.90;;;26.30;91.90;;;;;;4920763;29;20415;-88
2021/06/21 09:56:38;;;;;;;8.63;3.27;;;26.30;91.10;;;;;;4921221;29;20551;-92
2021/06/21 09:59:20;;;;;;;10.07;3.70;;;26.20;91.70;;;;;;4920302;29;21010;-90
2021/06/21 10:02:11;;;;;;;11.20;4.00;;;26.20;92.10;;;;;;4920501;29;20431;-91
2021/06/21 10:04:40;;;;;;;12.13;4.20;;;26.30;91.90;;;;;;4920309;29;20427;-89
2021/06/21 10:07:25;;;;;;;14.37;5.07;;;26.40;92.60;;;;;;4920859;29;20436;-90
2021/06/21 10:09:52;;;;;;;9.33;3.77;;;26.50;94.70;;;;;;4938439;29;20428;-91
2021/06/21 10:12:21;;;;;;;10.23;3.80;;;26.60;93.30;;;;;;4921691;29;20487;-91
2021/06/21 10:14:47;;;;;;;14.43;4.10;;;26.70;92.40;;;;;;4921109;29;20478;-90
2021/06/21 10:17:13;;;;;;;17.23;4.10;;;26.80;92.10;;;;;;4919690;29;20526;-89
2021/06/21 10:19:39;;;;;;;10.57;3.97;;;26.90;92.20;;;;;;4920482;29;20694;-90
2021/06/21 10:22:06;;;;;;;13.17;4.33;;;27.00;92.80;;;;;;4920745;29;20180;-90
2021/06/21 10:24:32;;;;;;;12.03;3.80;;;26.90;92.20;;;;;;4919826;29;20215;-90
2021/06/21 10:27:00;;;;;;;11.50;4.60;;;26.90;91.30;;;;;;4919729;29;21016;-90
2021/06/21 10:29:30;;;;;;;12.83;4.00;;;26.80;91.40;;;;;;4921613;29;20434;-90
2021/06/21 10:31:56;;;;;;;10.40;3.57;;;26.90;92.50;;;;;;4922016;29;20426;-91
2021/06/21 10:34:23;;;;;;;16.30;3.63;;;26.90;92.20;;;;;;4921123;29;20511;-91
2021/06/21 10:36:52;;;;;;;8.30;3.57;;;26.90;90.90;;;;;;4922386;29;20450;-90
2021/06/21 10:39:25;;;;;;;11.87;3.63;;;26.90;90.50;;;;;;4921512;29;20877;-91
2021/06/21 10:42:06;;;;;;;13.27;3.20;;;27.00;90.80;;;;;;4921349;29;20921;-91
2021/06/21 10:44:41;;;;;;;7.83;3.80;;;27.00;90.60;;;;;;4936228;29;20422;-91
2021/06/21 10:47:32;;;;;;;14.57;3.67;;;27.10;91.10;;;;;;4940345;29;20497;-90
2021/06/21 11:07:11;;;;;;;10.80;2.93;;;27.50;90.60;;;;;;4893165;23;20514;-70
2021/06/21 11:09:41;;;;;;;11.53;3.10;;;27.60;90.00;;;;;;4916378;29;20424;-70
2021/06/21 11:12:22;;;;;;;8.07;3.17;;;27.70;88.90;;;;;;4933840;29;20424;-70
2021/06/21 11:15:03;;;;;;;11.07;3.40;;;27.80;88.90;;;;;;4933690;29;20782;-70
2021/06/21 11:17:32;;;;;;;9.80;2.60;;;27.90;88.60;;;;;;4933455;29;20408;-71
2021/06/21 11:20:17;;;;;;;11.67;3.50;;;28.00;88.20;;;;;;4930648;29;20928;-71
2021/06/21 11:22:46;;;;;;;10.13;3.20;;;28.00;88.50;;;;;;4933445;29;20431;-70
2021/06/21 11:25:23;;;;;;;13.97;3.10;;;28.00;86.10;;;;;;4933855;29;20408;-70
2021/06/21 11:27:49;;;;;;;22.53;3.10;;;28.00;85.20;;;;;;4916518;29;20427;-70
2021/06/21 11:30:29;;;;;;;10.23;3.40;;;28.10;86.70;;;;;;4916644;29;20423;-70
2021/06/21 11:32:57;;;;;;;4.70;2.17;;;28.20;86.50;;;;;;4934094;29;20412;-70
2021/06/21 11:35:50;;;;;;;7.50;2.90;;;28.30;84.70;;;;;;4933315;29;20507;-71
2021/06/21 11:38:21;;;;;;;10.13;3.13;;;28.40;84.70;;;;;;4931740;29;20423;-71
2021/06/21 11:40:47;;;;;;;6.63;2.60;;;28.40;85.00;;;;;;4931060;29;20482;-72
2021/06/21 11:43:16;;;;;;;5.97;2.87;;;28.50;83.90;;;;;;4915721;29;20412;-71
2021/06/21 11:45:55;;;;;;;5.23;3.47;;;28.50;83.90;;;;;;4915313;29;20172;-71
2021/06/21 11:48:33;;;;;;;10.40;3.57;;;28.50;84.80;;;;;;4932631;29;20992;-71
2021/06/21 11:51:02;;;;;;;6.77;2.77;;;28.60;85.30;;;;;;4932833;29;20431;-71
2021/06/21 11:53:29;;;;;;;10.03;3.67;;;28.70;86.00;;;;;;4932486;29;20843;-71
2021/06/21 11:55:55;;;;;;;11.33;3.30;;;28.70;83.70;;;;;;4917753;29;21067;-71
2021/06/21 11:58:31;;;;;;;8.10;3.27;;;28.70;84.30;;;;;;4936776;29;20648;-71
2021/06/21 12:01:13;;;;;;;7.07;2.90;;;28.70;83.10;;;;;;4937211;29;20812;-70
2021/06/21 12:03:43;;;;;;;5.13;2.73;;;28.80;83.60;;;;;;4920307;29;20431;-71
2021/06/21 12:06:16;;;;;;;8.37;3.17;;;28.90;84.00;;;;;;4936844;29;20443;-71
2021/06/21 12:08:42;;;;;;;8.53;2.90;;;28.90;83.60;;;;;;4936987;29;20407;-71
2021/06/21 12:11:11;;;;;;;4.33;3.20;;;29.00;84.50;;;;;;4919615;29;20490;-71
2021/06/21 12:13:37;;;;;;;11.20;3.30;;;29.20;84.00;;;;;;4937095;29;20176;-71
2021/06/21 12:16:08;;;;;;;6.57;3.00;;;29.20;83.40;;;;;;4936832;29;20404;-71
2021/06/21 12:18:34;;;;;;;11.70;3.20;;;29.30;83.10;;;;;;4919519;29;20176;-71
2021/06/21 12:21:00;;;;;;;5.97;2.70;;;29.40;83.60;;;;;;4920026;29;20455;-71
2021/06/21 12:23:27;;;;;;;7.10;2.67;;;29.40;82.10;;;;;;4919526;29;20191;-71
2021/06/21 12:25:55;;;;;;;9.70;3.10;;;29.50;83.20;;;;;;4937179;29;20172;-71
2021/06/21 12:28:21;;;;;;;4.60;3.00;;;29.60;81.80;;;;;;4919661;29;21046;-71
2021/06/21 12:30:48;;;;;;;10.70;2.90;;;29.60;81.30;;;;;;4936687;29;20479;-71
2021/06/21 12:33:31;;;;;;;6.80;2.90;;;29.50;82.40;;;;;;4919412;29;20424;-71
2021/06/21 12:36:10;;;;;;;6.30;2.70;;;29.50;82.50;;;;;;4919329;29;20938;-71
2021/06/21 12:38:52;;;;;;;4.40;2.93;;;29.60;80.20;;;;;;4936488;29;21005;-71
2021/06/21 12:41:28;;;;;;;10.00;3.17;;;29.60;81.00;;;;;;4936321;29;20447;-71
2021/06/21 12:44:09;;;;;;;10.43;2.63;;;29.60;80.50;;;;;;4936358;29;20497;-71
2021/06/21 12:46:39;;;;;;;7.77;3.00;;;29.70;80.70;;;;;;4936133;29;20478;-71
2021/06/21 12:49:07;;;;;;;7.90;2.73;;;29.80;80.10;;;;;;4936134;29;20468;-71
2021/06/21 12:51:33;;;;;;;6.47;2.57;;;29.70;79.10;;;;;;4936279;29;20804;-71
2021/06/21 12:54:00;;;;;;;10.83;2.60;;;29.60;78.00;;;;;;4936231;29;20416;-71
2021/06/21 12:58:57;;;;;;;6.70;2.83;;;29.70;78.10;;;;;;4936837;29;20490;-86
2021/06/21 13:01:45;;;;;;;6.13;2.67;;;29.80;76.80;;;;;;4938335;29;20411;-86
2021/06/21 13:04:19;;;;;;;4.77;2.87;;;29.80;77.10;;;;;;4921656;29;20392;-85
2021/06/21 13:07:04;;;;;;;4.30;2.13;;;30.00;77.20;;;;;;4920794;29;20432;-87
2021/06/21 13:09:44;;;;;;;5.43;2.83;;;30.00;77.80;;;;;;4928481;28;20514;-90
2021/06/21 13:12:28;;;;;;;7.73;3.00;;;30.10;79.10;;;;;;4924054;29;20400;-84
2021/06/21 13:15:18;;;;;;;6.93;2.97;;;30.20;78.20;;;;;;4924981;29;20918;-87
2021/06/21 13:17:54;;;;;;;10.27;2.50;;;30.30;78.40;;;;;;4928886;23;20495;-72
2021/06/21 13:20:22;;;;;;;5.83;2.47;;;30.30;78.40;;;;;;4918490;29;20455;-70
2021/06/21 13:22:54;;;;;;;4.97;2.07;;;30.20;77.10;;;;;;4918630;29;20827;-70
2021/06/21 13:25:25;;;;;;;6.30;2.83;;;30.30;77.50;;;;;;4918543;29;20527;-70
2021/06/21 13:28:10;;;;;;;6.27;2.47;;;30.30;77.80;;;;;;4918665;29;20427;-70
2021/06/21 13:31:05;;;;;;;6.17;2.40;;;30.50;78.70;;;;;;4935643;29;20443;-70
2021/06/21 13:33:30;;;;;;;5.53;2.40;;;30.40;78.30;;;;;;4902202;29;20955;-72
2021/06/21 13:36:00;;;;;;;4.13;2.30;;;30.30;78.40;;;;;;4938949;29;20426;-71